Time;durP1;ratioP1;P1;durP2;ratioP2;P2;SDS_P1;SDS_P2;PMS_P1;PMS_P2;Temp;Humidity;BMP_temperature;BMP_pressure;BME280_temperature;BME280_humidity;BME280_pressure;Samples;Min_cycle;Max_cycle;Signal;HPM_P1;HPM_P2
2023/05/10 00:00:56;;;;;;;3.22;1.70;;;13.30;99.90;;;;;;5044061;28;20034;-84
2023/05/10 00:03:22;;;;;;;4.30;1.70;;;13.20;99.90;;;;;;5031057;28;20426;-85
2023/05/10 00:05:48;;;;;;;4.97;2.45;;;13.20;99.90;;;;;;5044075;28;20036;-85
2023/05/10 00:08:14;;;;;;;2.28;1.52;;;13.20;99.90;;;;;;5030829;28;20201;-85
2023/05/10 00:10:41;;;;;;;2.85;1.75;;;13.10;99.90;;;;;;5020039;28;20033;-86
2023/05/10 00:13:07;;;;;;;3.80;1.75;;;13.10;99.90;;;;;;5012869;28;20368;-85
2023/05/10 00:15:34;;;;;;;3.50;2.08;;;13.10;99.90;;;;;;5023937;28;20034;-85
2023/05/10 00:18:00;;;;;;;6.07;2.25;;;13.10;99.90;;;;;;5015748;28;20140;-86
2023/05/10 00:20:26;;;;;;;4.75;2.05;;;13.00;99.90;;;;;;5023581;28;20026;-85
2023/05/10 00:22:52;;;;;;;4.40;2.05;;;13.10;99.90;;;;;;5022037;28;20037;-86
2023/05/10 00:25:21;;;;;;;3.72;2.15;;;13.00;99.90;;;;;;5024514;28;20470;-85
2023/05/10 00:27:47;;;;;;;4.28;2.42;;;13.00;99.90;;;;;;5028669;28;20375;-84
2023/05/10 00:30:14;;;;;;;5.93;2.35;;;13.00;99.90;;;;;;5022016;28;20081;-86
2023/05/10 00:32:40;;;;;;;5.00;2.33;;;12.90;99.90;;;;;;5041891;28;20034;-86
2023/05/10 00:35:06;;;;;;;4.47;2.83;;;13.00;99.90;;;;;;5023184;28;20443;-86
2023/05/10 00:37:32;;;;;;;4.22;2.53;;;13.00;99.90;;;;;;5017272;28;20448;-85
2023/05/10 00:40:00;;;;;;;6.72;3.22;;;13.00;99.90;;;;;;5026332;28;20026;-86
2023/05/10 00:42:26;;;;;;;5.18;2.55;;;13.00;99.90;;;;;;5020442;28;20045;-86
2023/05/10 00:44:54;;;;;;;4.13;2.70;;;12.90;99.90;;;;;;5038626;28;20041;-85
2023/05/10 00:47:21;;;;;;;3.88;2.40;;;12.80;99.90;;;;;;5035584;28;20045;-87
2023/05/10 00:49:47;;;;;;;3.95;2.63;;;12.90;99.90;;;;;;5038236;28;20026;-86
2023/05/10 00:52:14;;;;;;;4.88;2.83;;;12.80;99.90;;;;;;5013638;28;20053;-86
2023/05/10 00:54:41;;;;;;;3.80;2.38;;;12.90;99.90;;;;;;5044403;28;20040;-86
2023/05/10 00:57:07;;;;;;;4.82;3.03;;;12.80;99.90;;;;;;5015037;28;20048;-86
2023/05/10 00:59:34;;;;;;;4.35;2.53;;;12.90;99.90;;;;;;5019413;28;20037;-86
2023/05/10 01:02:00;;;;;;;4.90;2.72;;;12.80;99.90;;;;;;5023603;28;20022;-87
2023/05/10 01:04:30;;;;;;;5.10;3.33;;;12.80;99.90;;;;;;5028822;28;20034;-86
2023/05/10 01:06:57;;;;;;;4.80;3.03;;;12.90;99.90;;;;;;5037437;28;20390;-86
2023/05/10 01:13:05;;;;;;;7.32;2.90;;;12.80;99.90;;;;;;5033806;28;20363;-87
2023/05/10 01:15:31;;;;;;;6.88;3.75;;;12.80;99.90;;;;;;5026332;28;20025;-87
2023/05/10 01:17:57;;;;;;;5.97;3.13;;;12.80;99.90;;;;;;5042410;28;20034;-88
2023/05/10 01:20:25;;;;;;;6.95;3.20;;;12.90;99.90;;;;;;5019072;28;20450;-89
2023/05/10 01:23:21;;;;;;;6.25;3.50;;;12.90;99.90;;;;;;5028921;28;20045;-84
2023/05/10 01:26:12;;;;;;;4.28;2.55;;;12.80;99.90;;;;;;5044207;28;20053;-88
2023/05/10 01:29:16;;;;;;;5.50;3.00;;;12.80;99.90;;;;;;5030676;28;20026;-88
2023/05/10 01:32:20;;;;;;;4.47;3.20;;;12.80;99.90;;;;;;5039626;28;20045;-88
2023/05/10 01:35:14;;;;;;;4.45;2.72;;;12.80;99.90;;;;;;5044750;28;20041;-87
2023/05/10 01:37:45;;;;;;;4.43;2.85;;;12.80;99.90;;;;;;5033245;28;20029;-88
2023/05/10 01:40:31;;;;;;;3.78;2.30;;;12.70;99.90;;;;;;5028383;28;20037;-87
2023/05/10 01:43:03;;;;;;;4.15;2.80;;;12.70;99.90;;;;;;5027061;28;20049;-91
2023/05/10 01:45:35;;;;;;;4.70;2.63;;;12.70;99.90;;;;;;5030503;28;20029;-87
2023/05/10 01:48:09;;;;;;;5.57;2.50;;;12.70;99.90;;;;;;5029119;28;20231;-87
2023/05/10 01:50:38;;;;;;;7.90;2.83;;;12.70;99.90;;;;;;5022697;28;20479;-88
2023/05/10 01:53:07;;;;;;;4.28;2.70;;;12.80;99.90;;;;;;5024347;28;20434;-89
2023/05/10 01:55:41;;;;;;;3.67;2.78;;;12.80;99.90;;;;;;5037587;28;20056;-87
2023/05/10 01:58:10;;;;;;;5.50;2.90;;;12.70;99.90;;;;;;5033983;28;20041;-87
2023/05/10 02:00:39;;;;;;;5.43;2.63;;;12.70;99.90;;;;;;5028827;28;20037;-88
2023/05/10 02:03:09;;;;;;;5.82;3.38;;;12.70;99.90;;;;;;5031557;28;20033;-88
2023/05/10 02:05:39;;;;;;;5.30;3.58;;;12.80;99.90;;;;;;5026644;28;20037;-87
2023/05/10 02:08:07;;;;;;;5.53;3.13;;;12.70;99.90;;;;;;5031278;28;20510;-88
2023/05/10 02:10:38;;;;;;;7.38;3.47;;;12.80;99.90;;;;;;5044951;28;20034;-88
2023/05/10 02:13:07;;;;;;;6.97;3.90;;;12.70;99.90;;;;;;5026408;28;20646;-88
2023/05/10 02:15:34;;;;;;;7.60;3.78;;;12.70;99.90;;;;;;5029815;28;20045;-88
2023/05/10 02:18:02;;;;;;;4.55;3.33;;;12.70;99.90;;;;;;5027800;28;20037;-89
2023/05/10 02:20:30;;;;;;;4.68;3.10;;;12.70;99.90;;;;;;5041462;28;20352;-88
2023/05/10 02:22:58;;;;;;;5.10;3.83;;;12.70;99.90;;;;;;5030515;28;20033;-88
2023/05/10 02:25:25;;;;;;;6.35;3.20;;;12.70;99.90;;;;;;5032022;28;20037;-88
2023/05/10 02:27:55;;;;;;;5.82;3.53;;;12.60;99.90;;;;;;5027674;28;20029;-88
2023/05/10 02:30:23;;;;;;;6.43;3.72;;;12.60;99.90;;;;;;5026245;28;20041;-88
2023/05/10 02:32:51;;;;;;;8.73;3.38;;;12.60;99.90;;;;;;5025318;28;20033;-89
2023/05/10 02:35:18;;;;;;;6.60;3.78;;;12.60;99.90;;;;;;5023373;28;20034;-89
2023/05/10 02:37:46;;;;;;;5.80;4.43;;;12.60;99.90;;;;;;5029801;28;20041;-89
2023/05/10 02:40:14;;;;;;;5.18;3.28;;;12.60;99.90;;;;;;5019683;28;20045;-88
2023/05/10 02:42:43;;;;;;;6.78;3.30;;;12.50;99.90;;;;;;5034995;28;20451;-88
2023/05/10 02:45:17;;;;;;;4.78;3.30;;;12.50;99.90;;;;;;5028599;28;20072;-87
2023/05/10 02:47:43;;;;;;;6.45;3.53;;;12.50;99.90;;;;;;5028872;28;20030;-87
2023/05/10 02:50:10;;;;;;;4.90;3.50;;;12.50;99.90;;;;;;5026372;28;20033;-87
2023/05/10 02:52:44;;;;;;;5.15;3.75;;;12.50;99.90;;;;;;5028162;28;20046;-86
2023/05/10 02:55:14;;;;;;;6.22;4.00;;;12.50;99.90;;;;;;5026312;28;20034;-87
2023/05/10 02:57:43;;;;;;;;;;;12.50;99.90;;;;;;5032713;28;20038;-87
2023/05/10 03:00:09;;;;;;;7.72;3.75;;;12.60;99.90;;;;;;5031783;28;19920;-87
2023/05/10 03:02:36;;;;;;;7.25;4.13;;;12.60;99.90;;;;;;5028413;28;20032;-87
2023/05/10 03:05:03;;;;;;;5.15;3.97;;;12.60;99.90;;;;;;5028416;28;20458;-87
2023/05/10 03:07:29;;;;;;;7.90;4.82;;;12.60;99.90;;;;;;5032392;28;20048;-88
2023/05/10 03:09:55;;;;;;;6.80;4.10;;;12.70;99.90;;;;;;5021103;28;20025;-88
2023/05/10 03:12:28;;;;;;;6.88;4.28;;;12.60;99.90;;;;;;5040111;28;20041;-87
2023/05/10 03:15:29;;;;;;;5.53;3.70;;;12.60;99.90;;;;;;5019291;28;20037;-87
2023/05/10 03:18:09;;;;;;;6.63;4.35;;;12.60;99.90;;;;;;4964118;28;20112;-87
2023/05/10 03:20:50;;;;;;;6.57;4.10;;;12.60;99.90;;;;;;5006062;28;20494;-86
2023/05/10 03:23:37;;;;;;;10.02;4.50;;;12.70;99.90;;;;;;5044753;28;20064;-88
2023/05/10 03:26:05;;;;;;;8.38;4.57;;;12.60;99.90;;;;;;5013769;28;20475;-87
2023/05/10 03:28:32;;;;;;;6.15;4.32;;;12.70;99.90;;;;;;5031875;28;20366;-87
2023/05/10 03:30:59;;;;;;;7.25;4.40;;;12.70;99.90;;;;;;5026673;28;20042;-87
2023/05/10 03:33:25;;;;;;;6.80;4.18;;;12.70;99.90;;;;;;5026103;28;20037;-87
2023/05/10 03:35:52;;;;;;;8.75;5.22;;;12.70;99.90;;;;;;5034104;28;20049;-89
2023/05/10 03:38:18;;;;;;;7.68;4.93;;;12.60;99.90;;;;;;5032625;28;20038;-88
2023/05/10 03:40:45;;;;;;;8.10;4.85;;;12.60;99.90;;;;;;5037505;28;20045;-87
2023/05/10 03:43:12;;;;;;;7.18;5.63;;;12.60;99.90;;;;;;5034800;28;20041;-88
2023/05/10 03:45:38;;;;;;;6.53;4.45;;;12.60;99.90;;;;;;5025074;28;20056;-88
2023/05/10 03:48:05;;;;;;;7.45;5.18;;;12.50;99.90;;;;;;5021492;28;20041;-88
2023/05/10 03:50:31;;;;;;;7.63;4.95;;;12.50;99.90;;;;;;5026839;28;20052;-87
2023/05/10 03:52:57;;;;;;;7.32;4.95;;;12.50;99.90;;;;;;5029610;28;20332;-88
2023/05/10 03:55:24;;;;;;;4.95;3.72;;;12.50;99.90;;;;;;5030781;28;20132;-87
2023/05/10 03:57:50;;;;;;;6.97;4.38;;;12.40;99.90;;;;;;5007326;28;20043;-87
2023/05/10 04:00:17;;;;;;;8.15;4.32;;;12.40;99.90;;;;;;5032743;28;20037;-87
2023/05/10 04:02:50;;;;;;;6.57;4.32;;;12.30;99.90;;;;;;5023800;28;20048;-87
2023/05/10 04:05:18;;;;;;;6.03;3.88;;;12.20;99.90;;;;;;5030271;28;20407;-86
2023/05/10 04:07:45;;;;;;;6.40;4.55;;;12.20;99.90;;;;;;5044628;28;20037;-86
2023/05/10 04:10:11;;;;;;;6.50;4.18;;;12.10;99.90;;;;;;5044974;28;20048;-86
2023/05/10 04:12:37;;;;;;;9.90;4.80;;;12.10;99.90;;;;;;5028287;28;20029;-85
2023/05/10 04:15:04;;;;;;;6.95;4.72;;;12.10;99.90;;;;;;5024685;28;20033;-85
2023/05/10 04:17:31;;;;;;;6.22;4.60;;;12.10;99.90;;;;;;5021430;28;20466;-85
2023/05/10 04:19:57;;;;;;;10.93;5.32;;;12.20;99.90;;;;;;5041846;28;20040;-85
2023/05/10 04:22:23;;;;;;;10.27;5.28;;;12.20;99.90;;;;;;5030554;28;20041;-84
2023/05/10 04:24:49;;;;;;;7.38;5.00;;;12.20;99.90;;;;;;5043182;28;20037;-84
2023/05/10 04:27:15;;;;;;;6.00;4.93;;;12.20;99.90;;;;;;5030445;28;20037;-85
2023/05/10 04:29:41;;;;;;;12.40;5.53;;;12.10;99.90;;;;;;5026453;28;20041;-85
2023/05/10 04:32:08;;;;;;;7.20;5.45;;;12.10;99.90;;;;;;5029193;28;20029;-86
2023/05/10 04:34:34;;;;;;;8.07;5.60;;;12.10;99.90;;;;;;5035833;28;20471;-85
2023/05/10 04:37:00;;;;;;;10.20;5.38;;;12.10;99.90;;;;;;5028731;28;20366;-85
2023/05/10 04:39:26;;;;;;;11.82;5.78;;;12.20;99.90;;;;;;5025299;28;20041;-85
2023/05/10 04:41:52;;;;;;;8.00;5.38;;;12.20;99.90;;;;;;5040771;28;20042;-80
2023/05/10 04:44:18;;;;;;;10.65;5.95;;;12.20;99.90;;;;;;5019803;28;20033;-78
2023/05/10 04:46:44;;;;;;;8.20;5.90;;;12.20;99.90;;;;;;5022651;28;20052;-79
2023/05/10 04:49:11;;;;;;;8.43;5.47;;;12.30;99.90;;;;;;5024702;28;20033;-78
2023/05/10 04:51:37;;;;;;;8.48;5.45;;;12.30;99.90;;;;;;5022646;28;20362;-78
2023/05/10 04:54:03;;;;;;;9.45;5.20;;;12.30;99.90;;;;;;5021851;28;20032;-78
2023/05/10 04:56:29;;;;;;;10.77;5.25;;;12.30;99.90;;;;;;5028905;28;20037;-78
2023/05/10 04:58:55;;;;;;;8.30;5.72;;;12.30;99.90;;;;;;5030397;28;20036;-78
2023/05/10 05:01:22;;;;;;;10.82;6.15;;;12.30;99.90;;;;;;5019055;28;20036;-78
2023/05/10 05:03:49;;;;;;;8.30;4.60;;;12.40;99.90;;;;;;5028607;28;20053;-77
2023/05/10 05:06:18;;;;;;;8.30;4.95;;;12.40;99.90;;;;;;5025791;28;20045;-78
2023/05/10 05:08:44;;;;;;;8.88;4.80;;;12.40;99.90;;;;;;5028086;28;20033;-77
2023/05/10 05:11:10;;;;;;;10.18;5.20;;;12.40;99.90;;;;;;5026021;28;20034;-78
2023/05/10 05:13:37;;;;;;;6.65;4.45;;;12.40;99.90;;;;;;5029355;28;20068;-77
2023/05/10 05:16:03;;;;;;;7.40;4.65;;;12.40;99.90;;;;;;5029109;28;20052;-77
2023/05/10 05:18:29;;;;;;;8.48;4.18;;;12.40;99.90;;;;;;5023650;28;20029;-78
2023/05/10 05:20:55;;;;;;;7.80;4.38;;;12.40;99.90;;;;;;5025234;28;20025;-77
2023/05/10 05:23:24;;;;;;;7.72;4.80;;;12.40;99.90;;;;;;5024219;28;20041;-80
2023/05/10 05:25:54;;;;;;;7.38;4.90;;;12.50;99.90;;;;;;5024132;28;20034;-80
2023/05/10 05:28:20;;;;;;;9.63;4.75;;;12.60;99.90;;;;;;5022123;28;20454;-80
2023/05/10 05:30:47;;;;;;;7.07;4.35;;;12.70;99.90;;;;;;5023492;28;20612;-80
2023/05/10 05:33:15;;;;;;;8.68;5.10;;;12.70;99.90;;;;;;5022622;28;20367;-79
2023/05/10 05:35:47;;;;;;;10.43;5.85;;;12.80;99.90;;;;;;5027888;28;20041;-79
2023/05/10 05:38:13;;;;;;;6.10;5.13;;;12.80;99.90;;;;;;5022334;28;20029;-79
2023/05/10 05:40:39;;;;;;;8.68;5.38;;;12.80;99.90;;;;;;5017702;28;20033;-79
2023/05/10 05:43:05;;;;;;;8.73;5.28;;;12.90;99.90;;;;;;5021306;28;20060;-79
2023/05/10 05:45:31;;;;;;;8.93;5.47;;;12.90;99.90;;;;;;5027050;28;20048;-78
2023/05/10 05:47:58;;;;;;;13.15;5.72;;;12.90;99.90;;;;;;5021017;28;20025;-78
2023/05/10 05:50:24;;;;;;;10.32;5.90;;;13.00;99.90;;;;;;5025383;28;20029;-79
2023/05/10 05:52:50;;;;;;;7.38;5.15;;;13.00;99.90;;;;;;5023063;28;20037;-80
2023/05/10 05:55:17;;;;;;;5.63;4.70;;;13.00;99.90;;;;;;5040833;28;20037;-80
2023/05/10 05:57:43;;;;;;;7.35;4.90;;;13.00;99.90;;;;;;5022531;28;20034;-80
2023/05/10 06:00:10;;;;;;;7.53;4.53;;;13.00;99.90;;;;;;5021130;28;20402;-80
2023/05/10 06:02:39;;;;;;;7.68;4.72;;;13.00;99.90;;;;;;5021347;28;20049;-79
2023/05/10 06:05:05;;;;;;;7.90;4.72;;;13.10;99.90;;;;;;5022763;28;20034;-79
2023/05/10 06:07:31;;;;;;;7.60;5.07;;;13.10;99.90;;;;;;5027640;28;20034;-79
2023/05/10 06:09:58;;;;;;;5.82;4.55;;;13.20;99.90;;;;;;5027774;28;20451;-79
2023/05/10 06:12:24;;;;;;;7.50;4.68;;;13.30;99.90;;;;;;5027687;28;20037;-78
2023/05/10 06:14:50;;;;;;;8.32;4.75;;;13.50;99.90;;;;;;5023555;28;20036;-79
2023/05/10 06:17:18;;;;;;;8.80;5.80;;;13.70;99.90;;;;;;5023819;28;20025;-79
2023/05/10 06:19:45;;;;;;;7.28;4.75;;;14.00;99.90;;;;;;5027892;28;20447;-79
2023/05/10 06:22:11;;;;;;;5.97;4.18;;;14.30;69.30;;;;;;5025052;28;20044;-79
2023/05/10 06:24:37;;;;;;;9.63;5.25;;;14.30;15.60;;;;;;5042600;28;20041;-79
2023/05/10 06:27:03;;;;;;;8.60;4.85;;;14.30;3.80;;;;;;5045810;28;20366;-79
2023/05/10 06:29:30;;;;;;;5.85;4.32;;;14.10;6.60;;;;;;5019503;28;20026;-79
2023/05/10 06:31:56;;;;;;;6.90;4.28;;;14.10;11.00;;;;;;5046492;28;20479;-79
2023/05/10 06:34:22;;;;;;;9.20;4.90;;;14.00;20.10;;;;;;5028597;28;20351;-79
2023/05/10 06:36:48;;;;;;;5.55;3.78;;;13.90;18.50;;;;;;5025751;28;20025;-79
2023/05/10 06:39:15;;;;;;;6.32;4.35;;;13.90;29.90;;;;;;5031305;28;20028;-79
2023/05/10 06:41:41;;;;;;;5.63;4.28;;;13.90;51.60;;;;;;5031311;28;20045;-79
2023/05/10 06:44:08;;;;;;;7.35;5.32;;;13.90;52.50;;;;;;5029443;28;20021;-80
2023/05/10 06:46:34;;;;;;;9.65;4.85;;;13.90;37.20;;;;;;5023958;28;20045;-81
2023/05/10 06:49:01;;;;;;;6.45;4.75;;;14.00;57.70;;;;;;5029242;28;20041;-80
2023/05/10 06:51:27;;;;;;;7.90;5.80;;;14.10;46.10;;;;;;5025748;28;20053;-80
2023/05/10 06:53:53;;;;;;;7.22;4.95;;;14.20;25.50;;;;;;5026538;28;20045;-80
2023/05/10 06:56:21;;;;;;;7.28;4.82;;;14.20;1.00;;;;;;5025732;28;20037;-80
2023/05/10 06:58:50;;;;;;;6.55;4.40;;;14.20;1.00;;;;;;5025977;28;20381;-80
2023/05/10 07:01:16;;;;;;;6.05;4.05;;;14.30;1.00;;;;;;5027684;28;20378;-80
2023/05/10 07:03:42;;;;;;;7.88;4.50;;;14.30;1.00;;;;;;5025382;28;20030;-79
2023/05/10 07:06:08;;;;;;;6.10;4.13;;;14.40;1.00;;;;;;5029168;28;20366;-80
2023/05/10 07:08:34;;;;;;;5.15;3.65;;;14.50;1.00;;;;;;5031531;28;20026;-80
2023/05/10 07:11:03;;;;;;;7.28;4.22;;;14.50;1.00;;;;;;5030400;28;20033;-79
2023/05/10 07:13:32;;;;;;;4.68;3.08;;;14.70;1.00;;;;;;5030188;28;20070;-84
2023/05/10 07:15:59;;;;;;;4.63;3.95;;;14.80;1.00;;;;;;5040517;28;20465;-84
2023/05/10 07:18:25;;;;;;;3.22;2.47;;;15.00;1.00;;;;;;5039926;28;20038;-84
2023/05/10 07:20:52;;;;;;;5.63;2.60;;;15.20;1.00;;;;;;5023231;28;20037;-85
2023/05/10 07:23:19;;;;;;;3.80;2.55;;;15.40;99.90;;;;;;5022963;28;20041;-84
2023/05/10 07:25:46;;;;;;;3.75;2.60;;;15.60;99.90;;;;;;5026097;28;20124;-85
2023/05/10 07:28:14;;;;;;;2.97;1.85;;;15.90;99.90;;;;;;5042661;28;20049;-84
2023/05/10 07:30:40;;;;;;;3.97;2.10;;;15.90;99.90;;;;;;5024768;28;20030;-84
2023/05/10 07:33:11;;;;;;;2.33;1.55;;;16.00;99.90;;;;;;5041759;28;20033;-86
2023/05/10 07:35:37;;;;;;;3.72;2.22;;;15.90;99.90;;;;;;5025147;28;20033;-84
2023/05/10 07:38:03;;;;;;;7.35;2.60;;;15.90;99.90;;;;;;5030330;28;20469;-84
2023/05/10 07:40:30;;;;;;;3.90;2.05;;;16.20;99.90;;;;;;5020780;28;20025;-85
2023/05/10 07:42:56;;;;;;;2.83;1.65;;;16.30;99.90;;;;;;5028604;28;20037;-84
2023/05/10 07:45:23;;;;;;;2.88;1.90;;;16.70;99.90;;;;;;5037905;28;20045;-84
2023/05/10 07:47:49;;;;;;;3.55;2.10;;;16.80;99.90;;;;;;5029347;28;20356;-83
2023/05/10 07:50:16;;;;;;;3.28;1.88;;;16.70;99.90;;;;;;5042773;28;20021;-83
2023/05/10 07:52:42;;;;;;;2.33;1.70;;;16.70;99.90;;;;;;5041672;28;20059;-83
2023/05/10 07:55:08;;;;;;;7.45;2.13;;;16.60;99.90;;;;;;5033163;28;20037;-82
2023/05/10 07:57:35;;;;;;;2.78;1.52;;;16.30;99.90;;;;;;5039571;28;20034;-82
2023/05/10 08:00:02;;;;;;;1.65;0.80;;;16.00;99.90;;;;;;5026078;28;20030;-82
2023/05/10 08:02:39;;;;;;;1.48;1.15;;;15.90;99.90;;;;;;5034002;28;20037;-84
2023/05/10 08:05:06;;;;;;;2.15;0.90;;;15.80;99.90;;;;;;5026640;28;20106;-83
2023/05/10 08:07:32;;;;;;;2.15;1.15;;;16.00;99.90;;;;;;5027724;28;20046;-83
2023/05/10 08:09:58;;;;;;;1.02;0.70;;;16.00;99.90;;;;;;5032456;28;20026;-80
2023/05/10 08:12:24;;;;;;;3.40;1.35;;;16.00;99.90;;;;;;5031167;28;20029;-82
2023/05/10 08:14:51;;;;;;;3.17;1.38;;;15.70;99.90;;;;;;5044493;28;20029;-83
2023/05/10 08:17:17;;;;;;;1.45;1.00;;;15.50;99.90;;;;;;5031167;28;20041;-84
2023/05/10 08:19:43;;;;;;;2.47;1.10;;;15.50;99.90;;;;;;5026885;28;20041;-84
2023/05/10 08:22:09;;;;;;;2.03;1.10;;;15.60;99.90;;;;;;5019770;28;20041;-84
2023/05/10 08:24:38;;;;;;;2.63;1.00;;;15.50;99.90;;;;;;5009130;28;20033;-84
2023/05/10 08:27:08;;;;;;;2.65;1.83;;;15.70;99.90;;;;;;5029618;28;20025;-84
2023/05/10 08:29:37;;;;;;;1.42;1.10;;;16.00;99.90;;;;;;5023474;28;20052;-84
2023/05/10 08:32:04;;;;;;;3.28;1.48;;;16.30;99.90;;;;;;5023051;28;20418;-85
2023/05/10 08:34:31;;;;;;;1.63;1.20;;;16.40;99.90;;;;;;5029449;28;20032;-84
2023/05/10 08:36:57;;;;;;;2.63;1.10;;;16.60;99.90;;;;;;5025454;28;20363;-84
2023/05/10 08:39:23;;;;;;;3.10;1.00;;;16.80;99.90;;;;;;5024842;28;20033;-86
2023/05/10 08:41:53;;;;;;;3.38;1.13;;;17.00;90.20;;;;;;5024606;28;20044;-86
2023/05/10 08:44:20;;;;;;;3.30;1.10;;;16.90;85.50;;;;;;5038143;28;20052;-83
2023/05/10 08:46:49;;;;;;;1.85;1.27;;;16.80;96.30;;;;;;5023256;28;20455;-84
2023/05/10 08:49:20;;;;;;;3.80;1.10;;;16.90;97.60;;;;;;5038321;28;20045;-84
2023/05/10 08:51:51;;;;;;;3.45;1.48;;;17.00;99.90;;;;;;5026525;28;20037;-85
2023/05/10 08:54:21;;;;;;;4.63;1.52;;;17.20;99.90;;;;;;5026149;28;20029;-85
2023/05/10 08:56:48;;;;;;;;;;;16.80;93.80;;;;;;5027696;28;20041;-84
2023/05/10 08:59:15;;;;;;;4.57;2.85;;;16.30;99.10;;;;;;5018283;28;19955;-84
2023/05/10 09:01:44;;;;;;;4.03;2.38;;;16.00;99.90;;;;;;5034825;28;20412;-86
2023/05/10 09:04:11;;;;;;;5.43;1.30;;;15.70;99.90;;;;;;5037439;28;20052;-83
2023/05/10 09:06:38;;;;;;;1.83;1.20;;;15.60;99.90;;;;;;5040199;28;20052;-83
2023/05/10 09:09:04;;;;;;;3.00;1.48;;;15.30;99.90;;;;;;5024666;28;20036;-84
2023/05/10 09:11:31;;;;;;;2.15;1.70;;;15.20;99.90;;;;;;5026346;28;20017;-84
2023/05/10 09:13:57;;;;;;;5.28;1.48;;;15.10;99.90;;;;;;5025724;28;20063;-84
2023/05/10 09:16:24;;;;;;;3.08;2.03;;;14.70;99.90;;;;;;5029889;28;20029;-83
2023/05/10 09:18:50;;;;;;;4.75;1.98;;;14.60;99.90;;;;;;5029750;28;20029;-84
2023/05/10 09:21:16;;;;;;;1.70;1.40;;;14.60;99.90;;;;;;5045448;28;20056;-84
2023/05/10 09:23:46;;;;;;;2.65;1.27;;;14.70;99.90;;;;;;5030253;28;20436;-84
2023/05/10 09:26:13;;;;;;;3.40;1.52;;;14.80;99.90;;;;;;5027218;28;20351;-83
2023/05/10 09:28:56;;;;;;;2.65;1.70;;;15.00;99.90;;;;;;5029791;28;20037;-87
2023/05/10 09:31:23;;;;;;;4.70;2.40;;;15.20;99.90;;;;;;5026339;28;20025;-86
2023/05/10 09:33:50;;;;;;;2.75;1.40;;;15.60;99.90;;;;;;5040936;28;20037;-84
2023/05/10 09:36:17;;;;;;;3.10;1.42;;;15.80;99.90;;;;;;5026083;28;20443;-85
2023/05/10 09:38:54;;;;;;;2.05;1.38;;;16.00;99.90;;;;;;5039748;28;20030;-84
2023/05/10 09:41:22;;;;;;;2.22;1.25;;;16.00;96.80;;;;;;5031297;28;20041;-85
2023/05/10 09:43:48;;;;;;;3.20;1.80;;;16.10;99.90;;;;;;5047003;28;20045;-85
2023/05/10 09:46:16;;;;;;;2.47;1.30;;;16.30;99.90;;;;;;5024931;28;20037;-84
2023/05/10 09:48:44;;;;;;;4.53;1.40;;;16.50;99.90;;;;;;5030263;28;20462;-85
2023/05/10 09:51:18;;;;;;;4.05;1.58;;;16.40;90.00;;;;;;5025619;28;20034;-85
2023/05/10 09:53:45;;;;;;;3.78;1.27;;;16.10;99.90;;;;;;5040558;28;20371;-85
2023/05/10 09:56:11;;;;;;;3.13;1.63;;;15.90;99.90;;;;;;5033222;28;20496;-85
2023/05/10 09:58:40;;;;;;;2.72;1.13;;;15.90;99.90;;;;;;5039498;28;20211;-83
2023/05/10 10:01:11;;;;;;;5.82;1.65;;;15.90;97.40;;;;;;5036396;28;20118;-83
2023/05/10 10:03:43;;;;;;;5.63;1.85;;;15.70;96.40;;;;;;5042995;28;20037;-84
2023/05/10 10:06:09;;;;;;;2.13;0.47;;;15.60;85.90;;;;;;5047227;28;20043;-88
2023/05/10 10:08:35;;;;;;;1.67;0.50;;;15.50;70.00;;;;;;5046740;28;20041;-88
2023/05/10 10:11:02;;;;;;;2.88;1.00;;;15.60;59.60;;;;;;5044523;28;20056;-83
2023/05/10 10:13:29;;;;;;;3.00;0.90;;;15.80;75.60;;;;;;5038263;28;20037;-87
2023/05/10 10:15:55;;;;;;;3.20;0.80;;;15.60;95.40;;;;;;5041184;28;20029;-86
2023/05/10 10:18:26;;;;;;;3.83;1.73;;;15.70;70.40;;;;;;5041933;28;20036;-84
2023/05/10 10:20:54;;;;;;;6.05;2.08;;;15.80;71.80;;;;;;5030484;28;20021;-82
2023/05/10 10:23:20;;;;;;;6.88;2.28;;;16.00;19.30;;;;;;5023279;28;20374;-82
2023/05/10 10:25:48;;;;;;;2.25;1.35;;;16.20;8.00;;;;;;5022180;28;20041;-85
2023/05/10 10:28:47;;;;;;;2.50;1.10;;;16.90;14.20;;;;;;5043874;28;20034;-89
2023/05/10 10:31:39;;;;;;;3.13;1.45;;;17.20;1.00;;;;;;5010399;28;20033;-86
2023/05/10 10:34:07;;;;;;;5.85;1.75;;;17.40;1.00;;;;;;5032985;28;20045;-82
2023/05/10 10:36:42;;;;;;;2.97;1.77;;;17.20;1.00;;;;;;5026876;28;20037;-88
2023/05/10 10:39:12;;;;;;;4.38;1.48;;;16.80;1.00;;;;;;5039785;28;20061;-84
2023/05/10 10:41:58;;;;;;;;;;;17.00;1.00;;;;;;5036290;28;20049;-88
2023/05/10 10:44:33;;;;;;;4.53;1.80;;;17.00;1.00;;;;;;5021506;28;19906;-89
2023/05/10 10:47:07;;;;;;;4.18;1.48;;;17.20;1.00;;;;;;5031273;28;20041;-88
2023/05/10 10:49:40;;;;;;;2.50;1.63;;;17.40;1.00;;;;;;5031087;28;20040;-88
2023/05/10 10:52:23;;;;;;;4.53;1.83;;;17.60;1.00;;;;;;5026063;28;20486;-87
2023/05/10 10:55:17;;;;;;;2.35;1.20;;;17.30;1.00;;;;;;5028426;28;20037;-86
2023/05/10 10:57:45;;;;;;;3.20;1.10;;;17.30;1.00;;;;;;5023378;28;20025;-87
2023/05/10 11:00:37;;;;;;;3.28;1.40;;;17.10;1.00;;;;;;5025932;28;20037;-89
2023/05/10 11:03:13;;;;;;;1.20;0.73;;;17.40;1.00;;;;;;5040955;28;20042;-90
2023/05/10 11:05:46;;;;;;;2.30;0.65;;;18.00;1.00;;;;;;5046743;28;20052;-88
2023/05/10 11:08:31;;;;;;;3.60;0.77;;;18.00;1.00;;;;;;5029528;28;20048;-85
2023/05/10 11:11:00;;;;;;;2.47;0.73;;;18.00;1.00;;;;;;5044906;28;20033;-89
2023/05/10 11:13:37;;;;;;;2.55;0.60;;;17.80;1.00;;;;;;5031897;28;20048;-84
2023/05/10 11:16:23;;;;;;;2.75;0.82;;;17.90;1.00;;;;;;5026239;28;20048;-81
2023/05/10 11:19:09;;;;;;;1.65;0.82;;;18.20;99.90;;;;;;5019680;28;20477;-88
2023/05/10 11:21:46;;;;;;;1.60;0.50;;;18.10;1.00;;;;;;5041825;28;20045;-90
2023/05/10 11:24:18;;;;;;;2.38;1.17;;;17.80;1.00;;;;;;5022500;28;20037;-87
2023/05/10 11:26:45;;;;;;;1.15;0.50;;;17.90;1.00;;;;;;5028743;28;20053;-85
2023/05/10 11:29:13;;;;;;;1.92;0.85;;;17.90;1.00;;;;;;5034210;28;20060;-91
2023/05/10 11:31:45;;;;;;;1.90;0.50;;;18.40;1.00;;;;;;5025392;28;20044;-87
2023/05/10 11:34:11;;;;;;;1.48;0.60;;;18.30;99.90;;;;;;5029526;28;20041;-89
2023/05/10 11:36:37;;;;;;;3.70;0.38;;;18.40;99.90;;;;;;5028208;28;20033;-87
2023/05/10 11:39:04;;;;;;;0.70;0.40;;;18.40;99.90;;;;;;5014591;28;20041;-83
2023/05/10 11:41:31;;;;;;;2.10;0.60;;;18.30;99.90;;;;;;5041318;28;20038;-84
2023/05/10 11:43:58;;;;;;;2.22;0.70;;;18.30;99.90;;;;;;5027379;28;20029;-85
2023/05/10 11:46:29;;;;;;;2.38;0.30;;;18.30;99.90;;;;;;5022650;28;20044;-86
2023/05/10 11:49:03;;;;;;;0.75;0.40;;;18.60;99.90;;;;;;5007880;28;20042;-89
2023/05/10 11:51:34;;;;;;;2.55;0.60;;;18.30;99.90;;;;;;5045099;28;20109;-85
2023/05/10 11:54:00;;;;;;;1.23;0.50;;;18.70;99.90;;;;;;5030490;28;20041;-86
2023/05/10 11:56:26;;;;;;;5.75;1.00;;;18.20;99.90;;;;;;5025758;28;20033;-88
2023/05/10 11:58:55;;;;;;;0.90;0.40;;;18.20;99.90;;;;;;5021936;28;20041;-83
2023/05/10 12:01:23;;;;;;;1.58;0.40;;;18.50;99.90;;;;;;5026415;28;20045;-87
2023/05/10 12:03:50;;;;;;;4.30;0.80;;;18.80;99.90;;;;;;5023089;28;20030;-81
2023/05/10 12:06:18;;;;;;;3.78;0.75;;;18.20;99.90;;;;;;5021219;28;20034;-80
2023/05/10 12:08:53;;;;;;;2.95;0.57;;;18.10;99.90;;;;;;5024905;28;20040;-83
2023/05/10 12:11:21;;;;;;;1.42;0.52;;;18.20;99.90;;;;;;5024542;28;20034;-83
2023/05/10 12:13:49;;;;;;;7.22;1.13;;;18.40;99.90;;;;;;5026498;28;20025;-79
2023/05/10 12:16:27;;;;;;;1.63;0.55;;;18.00;99.90;;;;;;5024105;28;20037;-81
2023/05/10 12:18:57;;;;;;;1.55;0.70;;;18.00;99.90;;;;;;5025201;28;20053;-79
2023/05/10 12:21:24;;;;;;;6.88;0.60;;;18.00;99.90;;;;;;5021462;28;20038;-85
2023/05/10 12:23:52;;;;;;;2.40;0.60;;;18.20;99.90;;;;;;5027889;28;20459;-84
2023/05/10 12:26:22;;;;;;;3.63;1.08;;;18.20;99.90;;;;;;5018615;28;20037;-81
2023/05/10 12:28:48;;;;;;;2.83;0.55;;;17.90;99.90;;;;;;5024164;28;20030;-79
2023/05/10 12:31:14;;;;;;;4.90;0.80;;;17.60;99.90;;;;;;5020017;28;20038;-80
2023/05/10 12:33:45;;;;;;;2.00;0.80;;;17.60;99.90;;;;;;5025833;28;20030;-82
2023/05/10 12:36:13;;;;;;;1.27;0.60;;;18.00;99.90;;;;;;5023790;28;20374;-83
2023/05/10 12:38:42;;;;;;;4.22;0.50;;;18.30;99.90;;;;;;5028591;28;20029;-83
2023/05/10 12:41:14;;;;;;;1.45;0.80;;;18.60;99.90;;;;;;5018803;28;20366;-81
2023/05/10 12:43:40;;;;;;;1.27;0.50;;;18.90;99.90;;;;;;5024229;28;20041;-81
2023/05/10 12:46:11;;;;;;;1.27;0.50;;;18.70;99.90;;;;;;5025940;28;20371;-80
2023/05/10 12:48:39;;;;;;;1.85;0.90;;;18.90;99.90;;;;;;5024190;28;20459;-81
2023/05/10 12:51:09;;;;;;;3.38;0.88;;;18.80;99.90;;;;;;5025193;28;20026;-80
2023/05/10 12:53:36;;;;;;;6.13;0.90;;;19.00;99.90;;;;;;5021564;28;20030;-80
2023/05/10 12:56:02;;;;;;;3.53;0.50;;;18.90;99.90;;;;;;5021350;28;20490;-82
2023/05/10 12:58:28;;;;;;;9.88;0.93;;;19.00;99.90;;;;;;5018215;28;20042;-83
2023/05/10 13:00:56;;;;;;;1.50;0.93;;;19.30;99.90;;;;;;5023938;28;20026;-85